createdAt,value
2019-05-20T00:01:22.281Z,98546.80
2019-05-20T00:03:49.529Z,98543.33
2019-05-20T00:06:16.419Z,98536.31
2019-05-20T00:08:43.398Z,98544.02
2019-05-20T00:11:10.346Z,98536.27
2019-05-20T00:13:37.292Z,98526.32
2019-05-20T00:16:04.479Z,98521.36
2019-05-20T00:18:31.445Z,98514.92
2019-05-20T00:20:58.576Z,98511.41
2019-05-20T00:23:25.556Z,98516.21
2019-05-20T00:25:52.573Z,98516.56
2019-05-20T00:28:19.806Z,98517.91
2019-05-20T00:30:46.713Z,98515.91
2019-05-20T00:33:13.666Z,98519.67
2019-05-20T00:35:41.677Z,98516.84
2019-05-20T00:38:08.540Z,98511.72
2019-05-20T00:40:36.387Z,98510.41
2019-05-20T00:43:03.267Z,98511.34
2019-05-20T00:45:30.228Z,98512.18
2019-05-20T00:47:57.113Z,98514.82
2019-05-20T00:50:24.050Z,98514.66
2019-05-20T00:52:50.930Z,98514.91
2019-05-20T00:55:17.830Z,98521.13
2019-05-20T00:57:44.780Z,98514.25
2019-05-20T01:00:11.799Z,98511.27
2019-05-20T01:02:38.744Z,98513.55
2019-05-20T01:05:05.708Z,98514.17
2019-05-20T01:07:32.971Z,98509.66
2019-05-20T01:09:59.891Z,98507.64
2019-05-20T01:12:26.850Z,98510.23
2019-05-20T01:14:54.770Z,98506.97
2019-05-20T01:17:21.637Z,98502.17
2019-05-20T01:19:48.547Z,98506.56
2019-05-20T01:22:15.417Z,98510.56
2019-05-20T01:24:42.319Z,98517.58
2019-05-20T01:27:09.292Z,98514.68
2019-05-20T01:29:36.219Z,98510.62
2019-05-20T01:32:03.085Z,98515.58
2019-05-20T01:34:30.005Z,98508.38
2019-05-20T01:36:56.963Z,98503.23
2019-05-20T01:39:23.959Z,98505.88
2019-05-20T01:41:50.907Z,98499.25
2019-05-20T01:44:17.862Z,98495.54
2019-05-20T01:46:45.022Z,98483.20
2019-05-20T01:49:11.910Z,98485.23
2019-05-20T01:51:39.382Z,98485.57
2019-05-20T01:54:06.309Z,98483.73
2019-05-20T01:56:33.182Z,98491.24
2019-05-20T01:59:00.143Z,98496.21
2019-05-20T02:01:27.083Z,98499.09
2019-05-20T02:03:53.960Z,98495.11
2019-05-20T02:06:20.913Z,98485.84
2019-05-20T02:08:47.860Z,98482.43
2019-05-20T02:11:14.738Z,98476.73
2019-05-20T02:13:41.701Z,98476.09
2019-05-20T02:16:08.664Z,98478.77
2019-05-20T02:18:35.659Z,98473.83
2019-05-20T02:21:02.558Z,98468.03
2019-05-20T02:23:29.562Z,98464.02
2019-05-20T02:25:56.513Z,98467.98
2019-05-20T02:28:23.399Z,98471.75
2019-05-20T02:30:50.690Z,98464.14
2019-05-20T02:33:17.633Z,98462.30
2019-05-20T02:35:44.531Z,98459.16
2019-05-20T02:38:11.477Z,98453.66
2019-05-20T02:40:38.769Z,98448.52
2019-05-20T02:43:05.723Z,98453.01
2019-05-20T02:45:32.711Z,98459.16
2019-05-20T02:48:00.623Z,98449.52
2019-05-20T02:50:28.684Z,98447.90
2019-05-20T02:52:55.613Z,98444.16
2019-05-20T02:55:22.603Z,98436.74
2019-05-20T02:57:49.549Z,98439.27
2019-05-20T03:00:16.535Z,98442.02
2019-05-20T03:02:43.452Z,98435.05
2019-05-20T03:05:10.318Z,98430.61
2019-05-20T03:07:37.301Z,98431.45
2019-05-20T03:10:04.260Z,98430.11
2019-05-20T03:12:31.524Z,98430.32
2019-05-20T03:14:58.466Z,98432.09
2019-05-20T03:17:25.412Z,98435.11
2019-05-20T03:19:52.351Z,98440.40
2019-05-20T03:22:19.340Z,98438.32
2019-05-20T03:24:46.292Z,98438.78
2019-05-20T03:27:13.266Z,98436.95
2019-05-20T03:29:41.291Z,98432.70
2019-05-20T03:32:08.269Z,98439.66
2019-05-20T03:34:50.863Z,98440.24
2019-05-20T03:37:03.869Z,98441.08
2019-05-20T03:39:30.831Z,98441.63
2019-05-20T03:41:57.777Z,98439.13
2019-05-20T03:44:24.649Z,98439.76
2019-05-20T03:46:51.609Z,98441.84
2019-05-20T03:49:18.476Z,98439.80
2019-05-20T03:51:46.853Z,98443.11
2019-05-20T03:54:13.806Z,98444.94
2019-05-20T03:56:40.806Z,98445.68
2019-05-20T03:59:07.779Z,98448.70
2019-05-20T04:01:34.685Z,98448.49
2019-05-20T04:04:01.561Z,98449.23
2019-05-20T04:06:28.552Z,98445.73
2019-05-20T04:08:55.505Z,98443.71
2019-05-20T04:11:22.462Z,98444.05
2019-05-20T04:13:49.326Z,98439.25
2019-05-20T04:16:16.207Z,98436.47
2019-05-20T04:18:43.161Z,98433.85
2019-05-20T04:21:10.114Z,98434.73
2019-05-20T04:23:37.221Z,98435.45
2019-05-20T04:26:04.231Z,98440.03
2019-05-20T04:28:31.167Z,98441.47
2019-05-20T04:30:58.049Z,98444.80
2019-05-20T04:33:25.029Z,98450.22
2019-05-20T04:35:51.990Z,98455.63
2019-05-20T04:38:18.953Z,98441.88
2019-05-20T04:40:45.889Z,98444.88
2019-05-20T04:43:12.765Z,98445.89
2019-05-20T04:45:39.650Z,98448.78
2019-05-20T04:48:06.666Z,98445.94
2019-05-20T04:50:33.642Z,98442.78
2019-05-20T04:53:00.567Z,98437.36
2019-05-20T04:55:27.481Z,98435.20
2019-05-20T04:57:54.812Z,98431.42
2019-05-20T05:00:21.769Z,98435.92
2019-05-20T05:02:48.730Z,98439.67
2019-05-20T05:05:16.829Z,98435.70
2019-05-20T05:07:43.738Z,98429.06
2019-05-20T05:10:10.709Z,98434.94
2019-05-20T05:12:37.685Z,98433.02
2019-05-20T05:15:07.758Z,98440.62
2019-05-20T05:17:33.243Z,98436.09
2019-05-20T05:20:00.182Z,98443.54
2019-05-20T05:22:27.146Z,98442.02
2019-05-20T05:24:54.021Z,98441.45
2019-05-20T05:27:20.985Z,98441.80
2019-05-20T05:29:48.922Z,98443.64
2019-05-20T05:32:15.797Z,98444.24
2019-05-20T05:34:42.665Z,98442.57
2019-05-20T05:37:09.526Z,98439.89
2019-05-20T05:39:36.428Z,98436.44
2019-05-20T05:42:03.535Z,98436.16
2019-05-20T05:44:30.523Z,98438.30
2019-05-20T05:46:57.392Z,98442.30
2019-05-20T05:49:24.295Z,98436.97
2019-05-20T05:51:51.240Z,98436.88
2019-05-20T05:54:18.653Z,98439.41
2019-05-20T05:56:45.667Z,98441.50
2019-05-20T05:59:12.623Z,98442.12
2019-05-20T06:01:39.494Z,98444.04
2019-05-20T06:04:06.469Z,98433.78
2019-05-20T06:06:33.408Z,98434.94
2019-05-20T06:09:00.296Z,98426.11
2019-05-20T06:11:27.243Z,98421.15
2019-05-20T06:13:54.208Z,98420.24
2019-05-20T06:16:35.264Z,98417.70
2019-05-20T06:18:49.765Z,98424.02
2019-05-20T06:21:16.819Z,98436.84
2019-05-20T06:23:43.813Z,98436.16
2019-05-20T06:26:10.769Z,98436.34
2019-05-20T06:28:37.716Z,98434.09
2019-05-20T06:31:04.969Z,98438.63
2019-05-20T06:33:31.869Z,98434.64
2019-05-20T06:35:58.833Z,98432.78
2019-05-20T06:38:26.110Z,98430.55
2019-05-20T06:40:52.978Z,98424.79
2019-05-20T06:43:19.951Z,98430.08
2019-05-20T06:45:47.277Z,98424.38
2019-05-20T06:48:14.213Z,98420.96
2019-05-20T06:50:41.093Z,98420.31
2019-05-20T06:53:08.022Z,98426.99
2019-05-20T06:55:34.919Z,98426.03
2019-05-20T06:58:01.802Z,98433.80
2019-05-20T07:00:29.848Z,98434.61
2019-05-20T07:02:56.792Z,98438.25
2019-05-20T07:05:23.746Z,98435.55
2019-05-20T07:07:50.625Z,98432.86
2019-05-20T07:10:17.940Z,98433.56
2019-05-20T07:12:44.896Z,98432.20
2019-05-20T07:15:11.808Z,98430.00
2019-05-20T07:17:39.105Z,98439.01
2019-05-20T07:20:06.364Z,98440.86
2019-05-20T07:22:34.309Z,98445.31
2019-05-20T07:25:01.220Z,98448.69
2019-05-20T07:27:28.930Z,98440.49
2019-05-20T07:29:56.189Z,98434.14
2019-05-20T07:32:23.079Z,98434.80
2019-05-20T07:34:50.029Z,98440.57
2019-05-20T07:37:16.958Z,98441.20
2019-05-20T07:39:43.944Z,98431.79
2019-05-20T07:42:10.933Z,98436.89
2019-05-20T07:44:37.905Z,98429.07
2019-05-20T07:47:04.796Z,98430.59
2019-05-20T07:49:32.201Z,98429.93
2019-05-20T07:51:59.108Z,98418.90
2019-05-20T07:54:26.072Z,98415.94
2019-05-20T07:56:53.018Z,98419.66
2019-05-20T07:59:19.963Z,98410.06
2019-05-20T08:01:46.961Z,98417.42
2019-05-20T08:04:14.359Z,98419.44
2019-05-20T08:06:41.255Z,98416.27
2019-05-20T08:09:08.255Z,98421.66
2019-05-20T08:11:35.160Z,98421.43
2019-05-20T08:14:02.077Z,98419.94
2019-05-20T08:16:29.042Z,98420.83
2019-05-20T08:18:56.003Z,98417.95
2019-05-20T08:21:23.266Z,98420.78
2019-05-20T08:23:50.435Z,98422.66
2019-05-20T08:26:17.508Z,98421.70
2019-05-20T08:28:44.467Z,98423.00
2019-05-20T08:31:11.453Z,98427.83
2019-05-20T08:33:38.408Z,98424.79
2019-05-20T08:36:05.645Z,98431.59
2019-05-20T08:38:32.575Z,98433.34
2019-05-20T08:40:59.476Z,98432.67
2019-05-20T08:43:26.427Z,98431.74
2019-05-20T08:45:53.372Z,98433.38
2019-05-20T08:48:20.250Z,98431.63
2019-05-20T08:50:47.413Z,98440.05
2019-05-20T08:53:14.355Z,98437.84
2019-05-20T08:55:41.329Z,98441.84
2019-05-20T08:58:08.581Z,98442.08
2019-05-20T09:00:35.553Z,98436.83
2019-05-20T09:03:02.483Z,98442.33
2019-05-20T09:05:29.437Z,98437.63
2019-05-20T09:08:03.170Z,98436.23
2019-05-20T09:10:25.357Z,98435.41
2019-05-20T09:12:52.310Z,98438.45
2019-05-20T09:15:19.249Z,98436.35
2019-05-20T09:17:46.247Z,98434.02
2019-05-20T09:20:13.260Z,98429.89
2019-05-20T09:22:40.262Z,98429.28
2019-05-20T09:25:07.364Z,98427.66
2019-05-20T09:27:35.973Z,98434.91
2019-05-20T09:30:02.997Z,98429.41
2019-05-20T09:32:31.553Z,98428.20
2019-05-20T09:34:58.504Z,98418.08
2019-05-20T09:37:25.423Z,98418.66
2019-05-20T09:39:52.453Z,98422.78
2019-05-20T09:42:19.449Z,98421.49
2019-05-20T09:44:46.774Z,98418.78
2019-05-20T09:47:13.740Z,98420.28
2019-05-20T09:49:40.690Z,98417.36
2019-05-20T09:52:07.666Z,98420.16
2019-05-20T09:54:34.594Z,98426.05
2019-05-20T09:57:01.473Z,98424.08
2019-05-20T09:59:42.086Z,98419.03
2019-05-20T10:01:57.249Z,98421.13
2019-05-20T10:04:24.214Z,98421.62
2019-05-20T10:06:51.397Z,98412.78
2019-05-20T10:09:18.436Z,98407.61
2019-05-20T10:11:45.325Z,98409.61
2019-05-20T10:14:12.200Z,98403.48
2019-05-20T10:16:39.174Z,98412.41
2019-05-20T10:19:06.135Z,98417.70
2019-05-20T10:21:33.056Z,98411.95
2019-05-20T10:24:01.481Z,98410.45
2019-05-20T10:26:29.536Z,98420.08
2019-05-20T10:28:56.531Z,98417.74
2019-05-20T10:31:23.479Z,98419.16
2019-05-20T10:33:50.450Z,98410.11
2019-05-20T10:36:17.650Z,98405.28
2019-05-20T10:38:58.150Z,98404.81
2019-05-20T10:41:13.163Z,98402.81
2019-05-20T10:43:40.085Z,98399.19
2019-05-20T10:46:06.945Z,98392.98
2019-05-20T10:48:33.834Z,98398.27
2019-05-20T10:51:00.712Z,98401.81
2019-05-20T10:53:28.484Z,98407.44
2019-05-20T10:55:55.639Z,98400.39
2019-05-20T10:58:22.644Z,98401.81
2019-05-20T11:01:01.764Z,98397.93
2019-05-20T11:03:18.190Z,98404.77
2019-05-20T11:05:45.151Z,98406.61
2019-05-20T11:08:12.107Z,98410.11
2019-05-20T11:10:39.069Z,98411.66
2019-05-20T11:13:07.012Z,98419.19
2019-05-20T11:15:33.966Z,98417.34
2019-05-20T11:18:00.953Z,98422.16
2019-05-20T11:20:27.932Z,98425.22
2019-05-20T11:22:54.887Z,98421.34
2019-05-20T11:25:21.835Z,98431.45
2019-05-20T11:27:49.136Z,98435.44
2019-05-20T11:30:16.554Z,98440.61
2019-05-20T11:32:43.498Z,98446.96
2019-05-20T11:35:10.469Z,98444.59
2019-05-20T11:37:37.436Z,98438.74
2019-05-20T11:40:05.370Z,98440.95
2019-05-20T11:42:32.983Z,98427.94
2019-05-20T11:44:59.949Z,98424.30
2019-05-20T11:47:26.917Z,98423.02
2019-05-20T11:49:53.896Z,98426.07
2019-05-20T11:52:20.840Z,98438.13
2019-05-20T11:54:47.880Z,98437.80
2019-05-20T11:57:14.858Z,98439.78
2019-05-20T11:59:41.833Z,98434.60
2019-05-20T12:02:08.825Z,98432.88
2019-05-20T12:04:35.742Z,98428.16
2019-05-20T12:07:02.691Z,98424.41
2019-05-20T12:09:29.579Z,98430.28
2019-05-20T12:11:56.472Z,98426.19
2019-05-20T12:14:23.782Z,98426.19
2019-05-20T12:16:50.651Z,98430.17
2019-05-20T12:19:17.626Z,98429.56
2019-05-20T12:21:44.529Z,98423.81
2019-05-20T12:24:11.500Z,98420.55
2019-05-20T12:26:38.463Z,98414.21
2019-05-20T12:29:05.433Z,98412.55
2019-05-20T12:31:32.303Z,98411.73
2019-05-20T12:33:59.573Z,98421.02
2019-05-20T12:36:26.821Z,98415.24
2019-05-20T12:38:54.883Z,98416.78
2019-05-20T12:41:21.900Z,98417.02
2019-05-20T12:44:09.027Z,98416.06
2019-05-20T12:46:17.577Z,98411.62
2019-05-20T12:48:44.523Z,98410.34
2019-05-20T12:51:14.497Z,98414.31
2019-05-20T12:53:40.127Z,98403.16
2019-05-20T12:56:07.068Z,98400.22
2019-05-20T12:58:34.009Z,98398.83
2019-05-20T13:01:00.924Z,98392.84
2019-05-20T13:03:28.353Z,98380.86
2019-05-20T13:05:55.309Z,98371.13
2019-05-20T13:08:22.281Z,98367.72
2019-05-20T13:10:49.607Z,98371.22
2019-05-20T13:13:16.469Z,98371.83
2019-05-20T13:15:43.348Z,98377.00
2019-05-20T13:18:10.311Z,98367.00
2019-05-20T13:20:37.257Z,98360.33
2019-05-20T13:23:06.555Z,98360.91
2019-05-20T13:25:32.998Z,98361.28
2019-05-20T13:27:59.876Z,98357.03
2019-05-20T13:30:26.768Z,98359.28
2019-05-20T13:32:54.037Z,98357.52
2019-05-20T13:35:20.993Z,98353.77
2019-05-20T13:37:48.146Z,98357.39
2019-05-20T13:40:15.108Z,98353.52
2019-05-20T13:42:42.138Z,98351.17
2019-05-20T13:45:09.082Z,98345.30
2019-05-20T13:47:36.072Z,98342.14
2019-05-20T13:50:03.022Z,98337.19
2019-05-20T13:52:29.890Z,98331.91
2019-05-20T13:54:56.769Z,98332.53
2019-05-20T13:57:23.730Z,98330.98
2019-05-20T13:59:50.971Z,98328.40
2019-05-20T14:02:17.934Z,98327.25
2019-05-20T14:04:44.866Z,98324.77
2019-05-20T14:07:11.817Z,98315.50
2019-05-20T14:09:38.772Z,98309.77
2019-05-20T14:12:05.737Z,98315.39
2019-05-20T14:14:32.709Z,98323.84
2019-05-20T14:16:59.689Z,98326.52
2019-05-20T14:19:26.628Z,98334.54
2019-05-20T14:21:53.565Z,98333.08
2019-05-20T14:24:20.429Z,98329.60
2019-05-20T14:26:47.362Z,98337.36
2019-05-20T14:29:14.262Z,98345.47
2019-05-20T14:31:41.224Z,98345.87
2019-05-20T14:36:40.067Z,98362.34
2019-05-20T14:39:04.030Z,98366.56
2019-05-20T14:41:31.266Z,98370.09
2019-05-20T14:43:58.234Z,98373.92
2019-05-20T14:46:25.180Z,98374.08
2019-05-20T14:48:52.551Z,98383.59
2019-05-20T14:51:19.424Z,98387.67
2019-05-20T14:53:46.313Z,98385.94
2019-05-20T14:56:13.347Z,98376.86
2019-05-20T14:58:40.607Z,98376.95
2019-05-20T15:01:07.593Z,98378.92
2019-05-20T15:03:34.539Z,98374.03
2019-05-20T15:06:01.675Z,98377.86
2019-05-20T15:08:33.343Z,98380.02
2019-05-20T15:10:57.714Z,98385.37
2019-05-20T15:13:24.650Z,98385.37
2019-05-20T15:15:51.603Z,98385.41
2019-05-20T15:18:18.557Z,98387.10
2019-05-20T15:20:46.658Z,98379.31
2019-05-20T15:23:13.879Z,98378.31
2019-05-20T15:25:40.788Z,98373.59
2019-05-20T15:28:08.078Z,98368.20
2019-05-20T15:30:34.970Z,98362.87
2019-05-20T15:33:01.984Z,98362.67
2019-05-20T15:35:28.918Z,98361.86
2019-05-20T15:37:56.039Z,98362.93
2019-05-20T15:40:24.423Z,98367.98
2019-05-20T15:42:51.717Z,98375.81
2019-05-20T15:45:18.648Z,98366.12
2019-05-20T15:47:45.584Z,98366.53
2019-05-20T15:50:12.479Z,98362.36
2019-05-20T15:52:39.564Z,98368.69
2019-05-20T15:55:07.833Z,98367.16
2019-05-20T15:57:34.706Z,98361.80
2019-05-20T16:00:01.570Z,98369.37
2019-05-20T16:02:28.616Z,98372.14
2019-05-20T16:04:55.503Z,98370.86
2019-05-20T16:07:22.465Z,98373.16
2019-05-20T16:09:49.411Z,98374.86
2019-05-20T16:12:16.303Z,98374.05
2019-05-20T16:14:43.262Z,98380.94
2019-05-20T16:17:10.208Z,98386.41
2019-05-20T16:19:37.395Z,98384.48
2019-05-20T16:22:04.294Z,98384.73
2019-05-20T16:24:31.334Z,98386.23
2019-05-20T16:26:58.255Z,98389.36
2019-05-20T16:29:25.140Z,98386.13
2019-05-20T16:31:52.461Z,98391.38
2019-05-20T16:34:19.324Z,98383.84
2019-05-20T16:36:46.515Z,98376.67
2019-05-20T16:39:13.387Z,98378.28
2019-05-20T16:41:40.262Z,98375.64
2019-05-20T16:44:07.149Z,98369.28
2019-05-20T16:46:34.417Z,98370.87
2019-05-20T16:49:01.365Z,98376.51
2019-05-20T16:51:28.232Z,98378.38
2019-05-20T16:53:55.113Z,98378.94
2019-05-20T16:56:22.401Z,98377.30
2019-05-20T16:58:49.365Z,98380.95
2019-05-20T17:01:16.601Z,98375.08
2019-05-20T17:03:43.542Z,98372.34
2019-05-20T17:06:10.480Z,98384.02
2019-05-20T17:08:37.839Z,98385.92
2019-05-20T17:11:04.776Z,98379.35
2019-05-20T17:13:31.726Z,98377.69
2019-05-20T17:15:58.587Z,98375.50
2019-05-20T17:18:25.725Z,98368.23
2019-05-20T17:20:52.663Z,98370.77
2019-05-20T17:23:19.832Z,98371.42
2019-05-20T17:25:50.070Z,98373.12
2019-05-20T17:28:15.356Z,98376.91
2019-05-20T17:30:45.489Z,98377.53
2019-05-20T17:33:11.198Z,98380.66
2019-05-20T17:35:38.159Z,98383.20
2019-05-20T17:38:05.129Z,98377.55
2019-05-20T17:40:32.076Z,98377.96
2019-05-20T17:42:59.041Z,98374.45
2019-05-20T17:45:26.214Z,98373.34
2019-05-20T17:47:53.124Z,98367.88
2019-05-20T17:50:20.073Z,98364.98
2019-05-20T17:52:47.367Z,98369.36
2019-05-20T17:55:14.526Z,98375.48
2019-05-20T17:57:41.471Z,98371.48
2019-05-20T18:00:08.428Z,98368.73
2019-05-20T18:02:35.389Z,98365.55
2019-05-20T18:05:02.322Z,98363.03
2019-05-20T18:07:29.185Z,98366.58
2019-05-20T18:09:56.061Z,98368.63
2019-05-20T18:12:23.034Z,98368.39
2019-05-20T18:14:49.984Z,98370.02
2019-05-20T18:17:16.892Z,98361.13
2019-05-20T18:19:43.853Z,98363.40
2019-05-20T18:22:10.806Z,98356.75
2019-05-20T18:24:38.817Z,98357.27
2019-05-20T18:27:05.701Z,98355.42
2019-05-20T18:29:32.993Z,98351.00
2019-05-20T18:31:59.862Z,98351.70
2019-05-20T18:34:26.740Z,98353.06
2019-05-20T18:36:53.699Z,98350.95
2019-05-20T18:39:20.623Z,98349.90
2019-05-20T18:41:47.553Z,98357.24
2019-05-20T18:44:14.902Z,98357.73
2019-05-20T18:46:41.829Z,98355.23
2019-05-20T18:49:08.789Z,98350.69
2019-05-20T18:51:35.686Z,98348.33
2019-05-20T18:54:02.969Z,98347.98
2019-05-20T18:56:29.860Z,98348.70
2019-05-20T18:58:56.788Z,98351.07
2019-05-20T19:01:24.004Z,98351.42
2019-05-20T19:03:50.902Z,98364.73
2019-05-20T19:06:17.888Z,98373.69
2019-05-20T19:08:45.018Z,98379.39
2019-05-20T19:11:12.295Z,98382.52
2019-05-20T19:13:39.549Z,98387.13
2019-05-20T19:16:06.429Z,98394.20
2019-05-20T19:18:33.365Z,98388.45
2019-05-20T19:21:00.252Z,98381.58
2019-05-20T19:23:27.263Z,98377.57
2019-05-20T19:25:54.254Z,98375.76
2019-05-20T19:28:21.137Z,98388.22
2019-05-20T19:30:48.100Z,98386.38
2019-05-20T19:33:15.051Z,98394.83
2019-05-20T19:35:42.263Z,98399.58
2019-05-20T19:38:09.201Z,98395.42
2019-05-20T19:40:36.159Z,98402.06
2019-05-20T19:43:03.131Z,98405.39
2019-05-20T19:45:30.471Z,98400.83
2019-05-20T19:47:57.338Z,98407.95
2019-05-20T19:50:24.575Z,98402.76
2019-05-20T19:52:51.870Z,98400.09
2019-05-20T19:55:19.338Z,98406.51
2019-05-20T19:57:46.729Z,98408.44
2019-05-20T20:00:13.621Z,98402.22
2019-05-20T20:02:40.486Z,98395.03
2019-05-20T20:05:07.692Z,98389.56
2019-05-20T20:07:35.813Z,98393.34
2019-05-20T20:10:02.695Z,98391.48
2019-05-20T20:12:29.626Z,98398.09
2019-05-20T20:14:56.510Z,98397.30
2019-05-20T20:17:23.470Z,98396.27
2019-05-20T20:19:50.447Z,98394.44
2019-05-20T20:22:17.400Z,98390.63
2019-05-20T20:24:44.353Z,98386.23
2019-05-20T20:27:11.227Z,98379.11
2019-05-20T20:29:38.105Z,98384.87
2019-05-20T20:32:05.500Z,98378.36
2019-05-20T20:34:32.756Z,98375.98
2019-05-20T20:37:00.738Z,98378.48
2019-05-20T20:39:27.975Z,98381.41
2019-05-20T20:41:54.842Z,98374.00
2019-05-20T20:44:21.731Z,98369.03
2019-05-20T20:46:48.702Z,98367.94
2019-05-20T20:49:15.638Z,98367.75
2019-05-20T20:51:42.512Z,98366.82
2019-05-20T20:54:09.733Z,98369.73
2019-05-20T20:56:36.622Z,98370.05
2019-05-20T20:59:03.580Z,98362.26
2019-05-20T21:01:30.536Z,98362.80
2019-05-20T21:03:57.846Z,98368.22
2019-05-20T21:06:24.773Z,98365.55
2019-05-20T21:08:52.531Z,98370.08
2019-05-20T21:11:19.822Z,98369.75
2019-05-20T21:13:46.709Z,98370.67
2019-05-20T21:16:13.606Z,98375.27
2019-05-20T21:18:41.034Z,98376.94
2019-05-20T21:21:08.157Z,98378.72
2019-05-20T21:23:37.938Z,98380.10
2019-05-20T21:26:03.638Z,98373.88
2019-05-20T21:28:30.586Z,98363.72
2019-05-20T21:30:57.530Z,98373.23
2019-05-20T21:33:24.412Z,98380.65
2019-05-20T21:35:51.346Z,98381.03
2019-05-20T21:38:18.568Z,98380.00
2019-05-20T21:40:45.543Z,98375.05
2019-05-20T21:43:13.554Z,98385.31
2019-05-20T21:45:40.728Z,98385.47
2019-05-20T21:48:07.686Z,98390.38
2019-05-20T21:50:34.644Z,98392.95
2019-05-20T21:53:01.599Z,98392.95
2019-05-20T21:55:28.834Z,98395.30
2019-05-20T21:57:55.702Z,98399.89
2019-05-20T22:00:22.634Z,98401.00
2019-05-20T22:02:51.214Z,98395.69
2019-05-20T22:05:18.150Z,98400.81
2019-05-20T22:07:45.380Z,98401.34
2019-05-20T22:10:12.274Z,98410.14
2019-05-20T22:12:39.211Z,98412.34
2019-05-20T22:15:06.120Z,98412.55
2019-05-20T22:17:33.065Z,98416.94
2019-05-20T22:20:00.022Z,98419.28
2019-05-20T22:22:26.975Z,98419.28
2019-05-20T22:24:53.841Z,98421.48
2019-05-20T22:27:20.744Z,98425.69
2019-05-20T22:29:47.685Z,98416.45
2019-05-20T22:32:15.750Z,98424.94
2019-05-20T22:34:53.264Z,98426.79
2019-05-20T22:37:11.274Z,98418.18
2019-05-20T22:39:38.134Z,98420.74
2019-05-20T22:42:05.122Z,98418.18
2019-05-20T22:44:32.073Z,98413.28
2019-05-20T22:46:59.025Z,98416.03
2019-05-20T22:49:25.895Z,98414.52
2019-05-20T22:51:52.850Z,98403.05
2019-05-20T22:54:19.786Z,98405.95
2019-05-20T22:56:46.756Z,98407.33
2019-05-20T22:59:13.722Z,98416.25
2019-05-20T23:01:40.664Z,98408.56
2019-05-20T23:04:07.797Z,98413.86
2019-05-20T23:06:34.696Z,98411.97
2019-05-20T23:09:01.652Z,98420.27
2019-05-20T23:11:30.156Z,98421.55
2019-05-20T23:13:57.457Z,98414.97
2019-05-20T23:16:24.393Z,98417.53
2019-05-20T23:18:51.266Z,98414.61
2019-05-20T23:21:18.585Z,98406.71
2019-05-20T23:23:46.523Z,98400.04
2019-05-20T23:26:13.462Z,98397.97
2019-05-20T23:28:40.408Z,98394.52
2019-05-20T23:31:07.594Z,98386.36
2019-05-20T23:33:34.543Z,98391.30
2019-05-20T23:36:01.491Z,98390.20
2019-05-20T23:38:28.469Z,98394.79
2019-05-20T23:40:55.408Z,98395.89
2019-05-20T23:43:22.286Z,98391.08
2019-05-20T23:45:49.175Z,98397.56
2019-05-20T23:48:16.145Z,98404.94
2019-05-20T23:50:43.493Z,98402.94
2019-05-20T23:53:10.461Z,98393.37
2019-05-20T23:55:37.398Z,98396.59
2019-05-20T23:58:04.375Z,98401.49
